Nassauborg — PHDU — position and weather

sailwx.info

Track history (hours):
 
Tides and Currents Weather Stations Pressure Air Temp Water Temp Dewpoint Dewpoint Depression Visibility Wind Speed Wind Dir Waves Ship Positions

Nassauborg

Ship's website: http://www.wagenborg.com/index.cfm?pid=37&itemid=158&contentitemid=236

Last reported at 2014-Aug-21 21:22 UTC. Time now 2014-Aug-21 22:05 UTC.
Position N 54°57' E 013°27'.

Length 143 m; beam 22 m.

Type: Cargo ship. MMSI: 246430000.

Date/timePositionNaut miles runAvg speedWind from/ knotsBaromVisibWave heightAir tempDewpointWater temp
2014-Aug-21 21:22N 54°57' E 013°27'1012.5
2014-Aug-21 20:33N 55°01' E 013°43'2512.0
2014-Aug-21 18:31N 55°14' E 014°18'1212.4
2014-Aug-21 17:32N 55°23' E 014°33'1212.2
2014-Aug-21 16:33N 55°30' E 014°50'1412.2
2014-Aug-21 15:22N 55°37' E 015°12'1112.2
2014-Aug-21 14:28N 55°43' E 015°29'1112.3
2014-Aug-21 13:33N 55°49' E 015°46'1212.4
2014-Aug-21 12:33N 55°55' E 016°05'1312.3
2014-Aug-21 11:32N 56°01' E 016°25'  
2014-Aug-17 13:06N 55°56' E 016°23'11311.7
2014-Aug-17 03:29N 55°14' E 013°18'1212.4
2014-Aug-17 02:32N 55°15' E 012°58'1111.7
2014-Aug-17 01:33N 55°19' E 012°39'1111.1
2014-Aug-17 00:33N 55°30' E 012°42'1211.6
2014-Aug-16 23:33N 55°41' E 012°41'1211.5
2014-Aug-16 22:33N 55°53' E 012°40'1312.5
2014-Aug-16 21:33N 56°05' E 012°35'1212.3
2014-Aug-16 20:33N 56°16' E 012°26'1212.0
2014-Aug-16 19:33N 56°27' E 012°19'1212.1
2014-Aug-16 18:33N 56°39' E 012°12'1312.7
2014-Aug-16 17:33N 56°51' E 012°05'1312.6
2014-Aug-16 16:33N 57°03' E 011°57'1212.5
2014-Aug-16 15:33N 57°14' E 011°49'1312.9
2014-Aug-16 14:33N 57°24' E 011°32'1212.2
2014-Aug-16 13:33N 57°32' E 011°16'1211.9
2014-Aug-16 12:33N 57°40' E 010°60'1212.0
2014-Aug-16 11:34N 57°47' E 010°41'1313.1
2014-Aug-16 10:33N 57°43' E 010°18'11511.3
2014-Aug-16 00:21N 56°22' E 007°47'5711.0
2014-Aug-15 19:09N 55°26' E 007°23'712.0
2014-Aug-15 18:33N 55°19' E 007°24'1312.3
2014-Aug-15 17:30N 55°07' E 007°26'1312.4
2014-Aug-15 16:28N 54°54' E 007°29'1212.8
2014-Aug-15 15:33N 54°42' E 007°31'1212.4
2014-Aug-15 14:33N 54°30' E 007°33'1211.7
2014-Aug-15 13:33N 54°18' E 007°36'1111.2
2014-Aug-15 12:33N 54°10' E 007°49'1110.8
2014-Aug-15 11:33N 54°03' E 008°03'10 9.5
2014-Aug-15 10:33N 53°60' E 008°18'1312.8
2014-Aug-15 09:33N 53°56' E 008°39'1313.4
2014-Aug-15 08:33N 53°51' E 009°00'1111.0
2014-Aug-15 07:33N 53°51' E 009°19'1413.7
2014-Aug-15 06:33N 53°39' E 009°31'1111.0
2014-Aug-15 05:33N 53°34' E 009°47'6 6.1
2014-Aug-15 04:34N 53°31' E 009°56'0 0.0
2014-Aug-15 03:34N 53°31' E 009°56'0 0.0
2014-Aug-15 02:33N 53°31' E 009°56'0 0.0
2014-Aug-15 01:34N 53°31' E 009°56'0 0.0
2014-Aug-15 00:33N 53°31' E 009°56'0 0.0
2014-Aug-14 23:34N 53°31' E 009°56'0 0.0
2014-Aug-14 22:33N 53°31' E 009°56'0 0.0
2014-Aug-14 21:33N 53°31' E 009°56'0 0.0
2014-Aug-14 20:33N 53°31' E 009°56'0 0.0
2014-Aug-14 19:33N 53°31' E 009°56'0 0.0
2014-Aug-14 18:34N 53°31' E 009°56'0 0.0
2014-Aug-14 17:34N 53°31' E 009°56'0 0.0
2014-Aug-14 16:34N 53°31' E 009°56'2 1.8
2014-Aug-14 15:34N 53°33' E 009°55'1312.7
2014-Aug-14 14:33N 53°36' E 009°34'1413.6
2014-Aug-14 13:33N 53°48' E 009°23'1212.0
2014-Aug-14 12:33N 53°52' E 009°03'1312.6
2014-Aug-14 11:33N 53°53' E 008°42'1413.6
2014-Aug-14 10:33N 53°59' E 008°21'1312.8
2014-Aug-14 09:34N 54°02' E 007°60'1212.1
2014-Aug-14 08:33N 54°08' E 007°42'1111.4
2014-Aug-14 07:34N 54°18' E 007°35'1111.1
2014-Aug-14 06:34N 54°30' E 007°32'1110.5
2014-Aug-14 05:33N 54°40' E 007°30'1010.3
2014-Aug-14 04:33N 54°50' E 007°28'1010.2
2014-Aug-14 03:34N 55°00' E 007°26'1010.1
2014-Aug-14 02:33N 55°11' E 007°24'1010.2
2014-Aug-14 01:34N 55°21' E 007°22'1210.4
2014-Aug-14 00:26N 55°32' E 007°20'103 9.5
2014-Aug-13 13:33N 57°09' E 008°26'10 9.6
2014-Aug-13 12:33N 57°15' E 008°40'10 9.6
2014-Aug-13 11:32N 57°21' E 008°54'4210.0
2014-Aug-13 07:18N 57°46' E 009°58'7 9.8
2014-Aug-13 06:33N 57°47' E 010°11'10 9.7
2014-Aug-13 05:33N 57°48' E 010°30'9 9.2
2014-Aug-13 04:33N 57°48' E 010°47'1110.7
2014-Aug-13 03:33N 57°40' E 011°01'1110.9
2014-Aug-13 02:33N 57°33' E 011°16'180 9.9
2014-Aug-12 08:15N 54°32' E 011°26'811.3
2014-Aug-12 07:34N 54°29' E 011°38'1110.7
2014-Aug-12 06:33N 54°27' E 011°56'9 9.2
2014-Aug-12 05:33N 54°30' E 012°11'1010.4
2014-Aug-12 04:33N 54°39' E 012°20'1311.0
2014-Aug-12 03:21N 54°46' E 012°39'1011.0
2014-Aug-12 02:26N 54°50' E 012°55'1011.5
2014-Aug-12 01:33N 54°54' E 013°12'1211.9
2014-Aug-12 00:34N 54°58' E 013°31'1211.9
2014-Aug-11 23:32N 55°02' E 013°51'1411.6
2014-Aug-11 22:20N 55°10' E 014°11'1011.5
2014-Aug-11 21:30N 55°17' E 014°23'  
Track history (hours):
 
Tides and Currents Weather Stations Pressure Air Temp Water Temp Dewpoint Dewpoint Depression Visibility Wind Speed Wind Dir Waves Ship Positions

Nassauborg

Ship's website: http://www.wagenborg.com/index.cfm?pid=37&itemid=158&contentitemid=236

Last reported at 2014-Aug-21 21:22 UTC. Time now 2014-Aug-21 22:05 UTC.
Position N 54°57' E 013°27'.

Length 143 m; beam 22 m.

Type: Cargo ship. MMSI: 246430000.

Date/timePositionNaut miles runAvg speedWind from/ knotsBaromVisibWave heightAir tempDewpointWater temp
2014-Aug-21 21:22N 54°57' E 013°27'1012.5
2014-Aug-21 20:33N 55°01' E 013°43'2512.0
2014-Aug-21 18:31N 55°14' E 014°18'1212.4
2014-Aug-21 17:32N 55°23' E 014°33'1212.2
2014-Aug-21 16:33N 55°30' E 014°50'1412.2
2014-Aug-21 15:22N 55°37' E 015°12'1112.2
2014-Aug-21 14:28N 55°43' E 015°29'1112.3
2014-Aug-21 13:33N 55°49' E 015°46'1212.4
2014-Aug-21 12:33N 55°55' E 016°05'1312.3
2014-Aug-21 11:32N 56°01' E 016°25'  
2014-Aug-17 13:06N 55°56' E 016°23'11311.7
2014-Aug-17 03:29N 55°14' E 013°18'1212.4
2014-Aug-17 02:32N 55°15' E 012°58'1111.7
2014-Aug-17 01:33N 55°19' E 012°39'1111.1
2014-Aug-17 00:33N 55°30' E 012°42'1211.6
2014-Aug-16 23:33N 55°41' E 012°41'1211.5
2014-Aug-16 22:33N 55°53' E 012°40'1312.5
2014-Aug-16 21:33N 56°05' E 012°35'1212.3
2014-Aug-16 20:33N 56°16' E 012°26'1212.0
2014-Aug-16 19:33N 56°27' E 012°19'1212.1
2014-Aug-16 18:33N 56°39' E 012°12'1312.7
2014-Aug-16 17:33N 56°51' E 012°05'1312.6
2014-Aug-16 16:33N 57°03' E 011°57'1212.5
2014-Aug-16 15:33N 57°14' E 011°49'1312.9
2014-Aug-16 14:33N 57°24' E 011°32'1212.2
2014-Aug-16 13:33N 57°32' E 011°16'1211.9
2014-Aug-16 12:33N 57°40' E 010°60'1212.0
2014-Aug-16 11:34N 57°47' E 010°41'1313.1
2014-Aug-16 10:33N 57°43' E 010°18'11511.3
2014-Aug-16 00:21N 56°22' E 007°47'5711.0
2014-Aug-15 19:09N 55°26' E 007°23'712.0
2014-Aug-15 18:33N 55°19' E 007°24'1312.3
2014-Aug-15 17:30N 55°07' E 007°26'1312.4
2014-Aug-15 16:28N 54°54' E 007°29'1212.8
2014-Aug-15 15:33N 54°42' E 007°31'1212.4
2014-Aug-15 14:33N 54°30' E 007°33'1211.7
2014-Aug-15 13:33N 54°18' E 007°36'1111.2
2014-Aug-15 12:33N 54°10' E 007°49'1110.8
2014-Aug-15 11:33N 54°03' E 008°03'10 9.5
2014-Aug-15 10:33N 53°60' E 008°18'1312.8
2014-Aug-15 09:33N 53°56' E 008°39'1313.4
2014-Aug-15 08:33N 53°51' E 009°00'1111.0
2014-Aug-15 07:33N 53°51' E 009°19'1413.7
2014-Aug-15 06:33N 53°39' E 009°31'1111.0
2014-Aug-15 05:33N 53°34' E 009°47'6 6.1
2014-Aug-15 04:34N 53°31' E 009°56'0 0.0
2014-Aug-15 03:34N 53°31' E 009°56'0 0.0
2014-Aug-15 02:33N 53°31' E 009°56'0 0.0
2014-Aug-15 01:34N 53°31' E 009°56'0 0.0
2014-Aug-15 00:33N 53°31' E 009°56'0 0.0
2014-Aug-14 23:34N 53°31' E 009°56'0 0.0
2014-Aug-14 22:33N 53°31' E 009°56'0 0.0
2014-Aug-14 21:33N 53°31' E 009°56'0 0.0
2014-Aug-14 20:33N 53°31' E 009°56'0 0.0
2014-Aug-14 19:33N 53°31' E 009°56'0 0.0
2014-Aug-14 18:34N 53°31' E 009°56'0 0.0
2014-Aug-14 17:34N 53°31' E 009°56'0 0.0
2014-Aug-14 16:34N 53°31' E 009°56'2 1.8
2014-Aug-14 15:34N 53°33' E 009°55'1312.7
2014-Aug-14 14:33N 53°36' E 009°34'1413.6
2014-Aug-14 13:33N 53°48' E 009°23'1212.0
2014-Aug-14 12:33N 53°52' E 009°03'1312.6
2014-Aug-14 11:33N 53°53' E 008°42'1413.6
2014-Aug-14 10:33N 53°59' E 008°21'1312.8
2014-Aug-14 09:34N 54°02' E 007°60'1212.1
2014-Aug-14 08:33N 54°08' E 007°42'1111.4
2014-Aug-14 07:34N 54°18' E 007°35'1111.1
2014-Aug-14 06:34N 54°30' E 007°32'1110.5
2014-Aug-14 05:33N 54°40' E 007°30'1010.3
2014-Aug-14 04:33N 54°50' E 007°28'1010.2
2014-Aug-14 03:34N 55°00' E 007°26'1010.1
2014-Aug-14 02:33N 55°11' E 007°24'1010.2
2014-Aug-14 01:34N 55°21' E 007°22'1210.4
2014-Aug-14 00:26N 55°32' E 007°20'103 9.5
2014-Aug-13 13:33N 57°09' E 008°26'10 9.6
2014-Aug-13 12:33N 57°15' E 008°40'10 9.6
2014-Aug-13 11:32N 57°21' E 008°54'4210.0
2014-Aug-13 07:18N 57°46' E 009°58'7 9.8
2014-Aug-13 06:33N 57°47' E 010°11'10 9.7
2014-Aug-13 05:33N 57°48' E 010°30'9 9.2
2014-Aug-13 04:33N 57°48' E 010°47'1110.7
2014-Aug-13 03:33N 57°40' E 011°01'1110.9
2014-Aug-13 02:33N 57°33' E 011°16'180 9.9
2014-Aug-12 08:15N 54°32' E 011°26'811.3
2014-Aug-12 07:34N 54°29' E 011°38'1110.7
2014-Aug-12 06:33N 54°27' E 011°56'9 9.2
2014-Aug-12 05:33N 54°30' E 012°11'1010.4
2014-Aug-12 04:33N 54°39' E 012°20'1311.0
2014-Aug-12 03:21N 54°46' E 012°39'1011.0
2014-Aug-12 02:26N 54°50' E 012°55'1011.5
2014-Aug-12 01:33N 54°54' E 013°12'1211.9
2014-Aug-12 00:34N 54°58' E 013°31'1211.9
2014-Aug-11 23:32N 55°02' E 013°51'1411.6
2014-Aug-11 22:20N 55°10' E 014°11'1011.5
2014-Aug-11 21:30N 55°17' E 014°23'  

Dump ship's entire track history